sensor_id;sensor_type;location;lat;lon;timestamp;temperature;humidity
11838;DHT22;5978;51.020;6.764;2022-10-16T00:01:08;13.80;99.90
11838;DHT22;5978;51.020;6.764;2022-10-16T00:03:37;13.80;99.90
11838;DHT22;5978;51.020;6.764;2022-10-16T00:06:03;13.80;99.90
11838;DHT22;5978;51.020;6.764;2022-10-16T00:08:29;13.80;99.90
11838;DHT22;5978;51.020;6.764;2022-10-16T00:11:03;13.80;99.90
11838;DHT22;5978;51.020;6.764;2022-10-16T00:13:29;13.70;99.90
11838;DHT22;5978;51.020;6.764;2022-10-16T00:15:57;13.80;99.90
11838;DHT22;5978;51.020;6.764;2022-10-16T00:18:24;13.70;99.90
11838;DHT22;5978;51.020;6.764;2022-10-16T00:20:50;13.80;99.90
11838;DHT22;5978;51.020;6.764;2022-10-16T00:23:15;13.80;99.90
11838;DHT22;5978;51.020;6.764;2022-10-16T00:25:41;13.80;99.90
11838;DHT22;5978;51.020;6.764;2022-10-16T00:28:06;13.90;99.90
11838;DHT22;5978;51.020;6.764;2022-10-16T00:30:32;13.90;99.90
11838;DHT22;5978;51.020;6.764;2022-10-16T00:32:58;13.90;99.90
11838;DHT22;5978;51.020;6.764;2022-10-16T00:35:23;13.90;99.90
11838;DHT22;5978;51.020;6.764;2022-10-16T00:37:49;13.90;99.90
11838;DHT22;5978;51.020;6.764;2022-10-16T00:40:15;13.90;99.90
11838;DHT22;5978;51.020;6.764;2022-10-16T00:42:41;13.90;99.90
11838;DHT22;5978;51.020;6.764;2022-10-16T00:45:24;13.80;99.90
11838;DHT22;5978;51.020;6.764;2022-10-16T00:47:51;13.70;99.90
11838;DHT22;5978;51.020;6.764;2022-10-16T00:50:29;13.60;99.90
11838;DHT22;5978;51.020;6.764;2022-10-16T00:52:56;13.50;99.90
11838;DHT22;5978;51.020;6.764;2022-10-16T00:55:22;13.50;99.90
11838;DHT22;5978;51.020;6.764;2022-10-16T00:57:51;13.50;99.90
11838;DHT22;5978;51.020;6.764;2022-10-16T01:00:21;13.40;99.90
11838;DHT22;5978;51.020;6.764;2022-10-16T01:02:58;13.40;99.90
11838;DHT22;5978;51.020;6.764;2022-10-16T01:05:39;13.40;99.90
11838;DHT22;5978;51.020;6.764;2022-10-16T01:08:17;13.30;99.90
11838;DHT22;5978;51.020;6.764;2022-10-16T01:11:17;13.30;99.90
11838;DHT22;5978;51.020;6.764;2022-10-16T01:13:52;13.30;99.90
11838;DHT22;5978;51.020;6.764;2022-10-16T01:16:37;13.20;99.90
11838;DHT22;5978;51.020;6.764;2022-10-16T01:19:44;13.20;99.90
11838;DHT22;5978;51.020;6.764;2022-10-16T01:22:13;13.20;99.90
11838;DHT22;5978;51.020;6.764;2022-10-16T01:24:43;13.20;99.90
11838;DHT22;5978;51.020;6.764;2022-10-16T01:27:30;13.20;99.90
11838;DHT22;5978;51.020;6.764;2022-10-16T01:30:18;13.30;99.90
11838;DHT22;5978;51.020;6.764;2022-10-16T01:32:52;13.30;99.90
11838;DHT22;5978;51.020;6.764;2022-10-16T01:35:26;13.30;99.90
11838;DHT22;5978;51.020;6.764;2022-10-16T01:38:04;13.20;99.90
11838;DHT22;5978;51.020;6.764;2022-10-16T01:40:34;13.30;99.90
11838;DHT22;5978;51.020;6.764;2022-10-16T01:43:14;13.30;99.90
11838;DHT22;5978;51.020;6.764;2022-10-16T01:45:41;13.30;99.90
11838;DHT22;5978;51.020;6.764;2022-10-16T01:48:09;13.40;99.90
11838;DHT22;5978;51.020;6.764;2022-10-16T01:50:39;13.40;99.90
11838;DHT22;5978;51.020;6.764;2022-10-16T01:53:07;13.50;99.90
11838;DHT22;5978;51.020;6.764;2022-10-16T01:55:37;13.40;99.90
11838;DHT22;5978;51.020;6.764;2022-10-16T01:58:26;13.40;99.90
11838;DHT22;5978;51.020;6.764;2022-10-16T02:00:54;13.50;99.90
11838;DHT22;5978;51.020;6.764;2022-10-16T02:03:22;13.50;99.90
11838;DHT22;5978;51.020;6.764;2022-10-16T02:05:51;13.50;99.90
11838;DHT22;5978;51.020;6.764;2022-10-16T02:08:18;13.60;99.90
11838;DHT22;5978;51.020;6.764;2022-10-16T02:10:44;13.60;99.90
11838;DHT22;5978;51.020;6.764;2022-10-16T02:13:45;13.60;99.90
11838;DHT22;5978;51.020;6.764;2022-10-16T02:16:13;13.50;99.90
11838;DHT22;5978;51.020;6.764;2022-10-16T02:18:40;13.50;99.90
11838;DHT22;5978;51.020;6.764;2022-10-16T02:24:18;13.60;99.90
11838;DHT22;5978;51.020;6.764;2022-10-16T02:27:10;13.60;99.90
11838;DHT22;5978;51.020;6.764;2022-10-16T02:29:44;13.60;99.90
11838;DHT22;5978;51.020;6.764;2022-10-16T02:32:16;13.70;99.90
11838;DHT22;5978;51.020;6.764;2022-10-16T02:34:42;13.60;99.90
11838;DHT22;5978;51.020;6.764;2022-10-16T02:37:10;13.60;99.90
11838;DHT22;5978;51.020;6.764;2022-10-16T02:39:37;13.70;99.90
11838;DHT22;5978;51.020;6.764;2022-10-16T02:42:03;13.70;99.90
11838;DHT22;5978;51.020;6.764;2022-10-16T02:44:28;13.70;99.90
11838;DHT22;5978;51.020;6.764;2022-10-16T02:46:55;13.70;99.90
11838;DHT22;5978;51.020;6.764;2022-10-16T02:49:21;13.60;99.90
11838;DHT22;5978;51.020;6.764;2022-10-16T02:51:46;13.60;99.90
11838;DHT22;5978;51.020;6.764;2022-10-16T02:54:12;13.60;99.90
11838;DHT22;5978;51.020;6.764;2022-10-16T02:56:38;13.60;99.90
11838;DHT22;5978;51.020;6.764;2022-10-16T02:59:04;13.60;99.90
11838;DHT22;5978;51.020;6.764;2022-10-16T03:01:29;13.50;99.90
11838;DHT22;5978;51.020;6.764;2022-10-16T03:03:55;13.50;99.90
11838;DHT22;5978;51.020;6.764;2022-10-16T03:06:21;13.40;99.90
11838;DHT22;5978;51.020;6.764;2022-10-16T03:08:46;13.40;99.90
11838;DHT22;5978;51.020;6.764;2022-10-16T03:11:12;13.40;99.90
11838;DHT22;5978;51.020;6.764;2022-10-16T03:13:56;13.40;99.90
11838;DHT22;5978;51.020;6.764;2022-10-16T03:16:25;13.40;99.90
11838;DHT22;5978;51.020;6.764;2022-10-16T03:18:50;13.40;99.90
11838;DHT22;5978;51.020;6.764;2022-10-16T03:21:16;13.30;99.90
11838;DHT22;5978;51.020;6.764;2022-10-16T03:23:42;13.30;99.90
11838;DHT22;5978;51.020;6.764;2022-10-16T03:26:08;13.30;99.90
11838;DHT22;5978;51.020;6.764;2022-10-16T03:28:33;13.30;99.90
11838;DHT22;5978;51.020;6.764;2022-10-16T03:30:59;13.30;99.90
11838;DHT22;5978;51.020;6.764;2022-10-16T03:33:24;13.20;99.90
11838;DHT22;5978;51.020;6.764;2022-10-16T03:35:54;13.20;99.90
11838;DHT22;5978;51.020;6.764;2022-10-16T03:38:21;13.20;99.90
11838;DHT22;5978;51.020;6.764;2022-10-16T03:40:46;13.20;99.90
11838;DHT22;5978;51.020;6.764;2022-10-16T03:43:12;13.20;99.90
11838;DHT22;5978;51.020;6.764;2022-10-16T03:45:38;13.20;99.90
11838;DHT22;5978;51.020;6.764;2022-10-16T03:48:03;13.20;99.90
11838;DHT22;5978;51.020;6.764;2022-10-16T03:50:29;13.20;99.90
11838;DHT22;5978;51.020;6.764;2022-10-16T03:52:55;13.30;99.90
11838;DHT22;5978;51.020;6.764;2022-10-16T03:55:21;13.30;99.90
11838;DHT22;5978;51.020;6.764;2022-10-16T03:57:46;13.40;99.90
11838;DHT22;5978;51.020;6.764;2022-10-16T04:00:13;13.40;99.90
11838;DHT22;5978;51.020;6.764;2022-10-16T04:02:39;13.40;99.90
11838;DHT22;5978;51.020;6.764;2022-10-16T04:05:05;13.50;99.90
11838;DHT22;5978;51.020;6.764;2022-10-16T04:07:30;13.50;99.90
11838;DHT22;5978;51.020;6.764;2022-10-16T04:09:56;13.60;99.90
11838;DHT22;5978;51.020;6.764;2022-10-16T04:12:24;13.50;99.90
11838;DHT22;5978;51.020;6.764;2022-10-16T04:14:50;13.50;99.90
11838;DHT22;5978;51.020;6.764;2022-10-16T04:17:15;13.50;99.90
11838;DHT22;5978;51.020;6.764;2022-10-16T04:19:41;13.40;99.90
11838;DHT22;5978;51.020;6.764;2022-10-16T04:22:06;13.40;99.90
11838;DHT22;5978;51.020;6.764;2022-10-16T04:24:32;13.30;99.90
11838;DHT22;5978;51.020;6.764;2022-10-16T04:26:58;13.30;99.90
11838;DHT22;5978;51.020;6.764;2022-10-16T04:29:23;13.30;99.90
11838;DHT22;5978;51.020;6.764;2022-10-16T04:31:49;13.20;99.90
11838;DHT22;5978;51.020;6.764;2022-10-16T04:34:15;13.20;99.90
11838;DHT22;5978;51.020;6.764;2022-10-16T04:36:40;13.20;99.90
11838;DHT22;5978;51.020;6.764;2022-10-16T04:39:06;13.20;99.90
11838;DHT22;5978;51.020;6.764;2022-10-16T04:41:31;13.20;99.90
11838;DHT22;5978;51.020;6.764;2022-10-16T04:43:57;13.20;99.90
11838;DHT22;5978;51.020;6.764;2022-10-16T04:46:23;13.20;99.90
11838;DHT22;5978;51.020;6.764;2022-10-16T04:48:48;13.20;99.90
11838;DHT22;5978;51.020;6.764;2022-10-16T04:51:14;13.20;99.90
11838;DHT22;5978;51.020;6.764;2022-10-16T04:53:39;13.20;99.90
11838;DHT22;5978;51.020;6.764;2022-10-16T04:56:05;13.20;99.90
11838;DHT22;5978;51.020;6.764;2022-10-16T04:58:31;13.20;99.90
11838;DHT22;5978;51.020;6.764;2022-10-16T05:00:56;13.20;99.90
11838;DHT22;5978;51.020;6.764;2022-10-16T05:03:22;13.20;99.90
11838;DHT22;5978;51.020;6.764;2022-10-16T05:05:47;13.10;99.90
11838;DHT22;5978;51.020;6.764;2022-10-16T05:08:14;13.10;99.90
11838;DHT22;5978;51.020;6.764;2022-10-16T05:10:42;13.10;99.90
11838;DHT22;5978;51.020;6.764;2022-10-16T05:13:07;13.10;99.90
11838;DHT22;5978;51.020;6.764;2022-10-16T05:15:47;13.10;99.90
11838;DHT22;5978;51.020;6.764;2022-10-16T05:18:25;13.00;99.90
11838;DHT22;5978;51.020;6.764;2022-10-16T05:20:51;12.90;99.90
11838;DHT22;5978;51.020;6.764;2022-10-16T05:23:17;12.90;99.90
11838;DHT22;5978;51.020;6.764;2022-10-16T05:25:42;12.90;99.90
11838;DHT22;5978;51.020;6.764;2022-10-16T05:28:08;12.90;99.90
11838;DHT22;5978;51.020;6.764;2022-10-16T05:30:34;12.90;99.90
11838;DHT22;5978;51.020;6.764;2022-10-16T05:32:59;12.90;99.90
11838;DHT22;5978;51.020;6.764;2022-10-16T05:35:25;13.00;99.90
11838;DHT22;5978;51.020;6.764;2022-10-16T05:37:51;13.00;99.90
11838;DHT22;5978;51.020;6.764;2022-10-16T05:40:17;13.00;99.90
11838;DHT22;5978;51.020;6.764;2022-10-16T05:42:43;13.00;99.90
11838;DHT22;5978;51.020;6.764;2022-10-16T05:45:10;13.00;99.90
11838;DHT22;5978;51.020;6.764;2022-10-16T05:47:37;13.00;99.90
11838;DHT22;5978;51.020;6.764;2022-10-16T05:50:03;13.00;99.90
11838;DHT22;5978;51.020;6.764;2022-10-16T05:52:29;13.00;99.90
11838;DHT22;5978;51.020;6.764;2022-10-16T05:54:55;13.00;99.90
11838;DHT22;5978;51.020;6.764;2022-10-16T05:57:21;13.00;99.90
11838;DHT22;5978;51.020;6.764;2022-10-16T05:59:46;13.00;99.90
11838;DHT22;5978;51.020;6.764;2022-10-16T06:02:13;13.10;99.90
11838;DHT22;5978;51.020;6.764;2022-10-16T06:04:39;13.10;99.90
11838;DHT22;5978;51.020;6.764;2022-10-16T06:07:04;13.10;99.90
11838;DHT22;5978;51.020;6.764;2022-10-16T06:09:30;13.10;99.90
11838;DHT22;5978;51.020;6.764;2022-10-16T06:11:55;13.10;99.90
11838;DHT22;5978;51.020;6.764;2022-10-16T06:14:21;13.10;99.90
11838;DHT22;5978;51.020;6.764;2022-10-16T06:16:47;13.10;99.90
11838;DHT22;5978;51.020;6.764;2022-10-16T06:19:13;13.10;99.90
11838;DHT22;5978;51.020;6.764;2022-10-16T06:21:38;13.10;99.90
11838;DHT22;5978;51.020;6.764;2022-10-16T06:24:04;13.00;99.90
11838;DHT22;5978;51.020;6.764;2022-10-16T06:26:30;13.00;99.90
11838;DHT22;5978;51.020;6.764;2022-10-16T06:28:57;13.00;99.90
11838;DHT22;5978;51.020;6.764;2022-10-16T06:31:23;13.10;99.90
11838;DHT22;5978;51.020;6.764;2022-10-16T06:33:53;13.10;99.90
11838;DHT22;5978;51.020;6.764;2022-10-16T06:36:20;13.10;99.90
11838;DHT22;5978;51.020;6.764;2022-10-16T06:38:46;13.20;99.90
11838;DHT22;5978;51.020;6.764;2022-10-16T06:41:14;13.20;99.90
11838;DHT22;5978;51.020;6.764;2022-10-16T06:43:40;13.20;99.90
11838;DHT22;5978;51.020;6.764;2022-10-16T06:46:07;13.30;99.90
11838;DHT22;5978;51.020;6.764;2022-10-16T06:48:34;13.40;99.90
11838;DHT22;5978;51.020;6.764;2022-10-16T06:51:03;13.40;99.90
11838;DHT22;5978;51.020;6.764;2022-10-16T06:53:31;13.50;99.90
11838;DHT22;5978;51.020;6.764;2022-10-16T06:55:57;13.60;99.90
11838;DHT22;5978;51.020;6.764;2022-10-16T06:58:23;13.60;99.90
11838;DHT22;5978;51.020;6.764;2022-10-16T07:00:49;13.70;99.90
11838;DHT22;5978;51.020;6.764;2022-10-16T07:03:20;13.80;99.90
11838;DHT22;5978;51.020;6.764;2022-10-16T07:05:45;13.80;99.90
11838;DHT22;5978;51.020;6.764;2022-10-16T07:08:11;13.90;99.90
11838;DHT22;5978;51.020;6.764;2022-10-16T07:10:36;14.00;99.90
11838;DHT22;5978;51.020;6.764;2022-10-16T07:13:02;14.10;99.90
11838;DHT22;5978;51.020;6.764;2022-10-16T07:15:28;14.20;99.90
11838;DHT22;5978;51.020;6.764;2022-10-16T07:17:55;14.30;99.90
11838;DHT22;5978;51.020;6.764;2022-10-16T07:20:20;14.30;99.90
11838;DHT22;5978;51.020;6.764;2022-10-16T07:22:46;14.40;99.90
11838;DHT22;5978;51.020;6.764;2022-10-16T07:25:12;14.30;99.90
11838;DHT22;5978;51.020;6.764;2022-10-16T07:27:38;14.30;99.90
11838;DHT22;5978;51.020;6.764;2022-10-16T07:30:04;14.30;99.90
11838;DHT22;5978;51.020;6.764;2022-10-16T07:32:30;14.30;99.90
11838;DHT22;5978;51.020;6.764;2022-10-16T07:34:56;14.40;99.90
11838;DHT22;5978;51.020;6.764;2022-10-16T07:37:22;14.50;99.90
11838;DHT22;5978;51.020;6.764;2022-10-16T07:39:47;14.50;99.90
11838;DHT22;5978;51.020;6.764;2022-10-16T07:42:13;14.50;99.90
11838;DHT22;5978;51.020;6.764;2022-10-16T07:44:39;14.50;99.90
11838;DHT22;5978;51.020;6.764;2022-10-16T07:47:05;14.50;99.90
11838;DHT22;5978;51.020;6.764;2022-10-16T07:49:31;14.40;99.90
11838;DHT22;5978;51.020;6.764;2022-10-16T07:51:57;14.40;99.90
11838;DHT22;5978;51.020;6.764;2022-10-16T07:54:22;14.30;99.90
11838;DHT22;5978;51.020;6.764;2022-10-16T07:56:48;14.30;99.90
11838;DHT22;5978;51.020;6.764;2022-10-16T07:59:13;14.40;99.90
11838;DHT22;5978;51.020;6.764;2022-10-16T08:01:39;14.60;99.90
11838;DHT22;5978;51.020;6.764;2022-10-16T08:04:08;14.90;99.90
11838;DHT22;5978;51.020;6.764;2022-10-16T08:06:36;15.20;99.90
11838;DHT22;5978;51.020;6.764;2022-10-16T08:09:02;15.40;99.90
11838;DHT22;5978;51.020;6.764;2022-10-16T08:11:28;15.70;99.90
11838;DHT22;5978;51.020;6.764;2022-10-16T08:13:53;15.90;99.90
11838;DHT22;5978;51.020;6.764;2022-10-16T08:16:19;16.20;99.90
11838;DHT22;5978;51.020;6.764;2022-10-16T08:18:45;16.30;99.90
11838;DHT22;5978;51.020;6.764;2022-10-16T08:21:15;16.40;99.90
11838;DHT22;5978;51.020;6.764;2022-10-16T08:23:41;16.40;99.90
11838;DHT22;5978;51.020;6.764;2022-10-16T08:26:08;16.40;99.90
11838;DHT22;5978;51.020;6.764;2022-10-16T08:28:35;16.40;99.90
11838;DHT22;5978;51.020;6.764;2022-10-16T08:31:14;16.60;99.90
11838;DHT22;5978;51.020;6.764;2022-10-16T08:33:42;16.90;99.90
11838;DHT22;5978;51.020;6.764;2022-10-16T08:36:10;17.00;99.90
11838;DHT22;5978;51.020;6.764;2022-10-16T08:38:36;17.30;99.90
11838;DHT22;5978;51.020;6.764;2022-10-16T08:44:40;17.80;99.90
11838;DHT22;5978;51.020;6.764;2022-10-16T08:49:55;17.90;99.90
11838;DHT22;5978;51.020;6.764;2022-10-16T08:52:21;18.00;99.90
11838;DHT22;5978;51.020;6.764;2022-10-16T08:54:51;18.20;99.90
11838;DHT22;5978;51.020;6.764;2022-10-16T08:57:20;18.50;99.90
11838;DHT22;5978;51.020;6.764;2022-10-16T08:59:46;18.60;99.90
11838;DHT22;5978;51.020;6.764;2022-10-16T09:05:23;18.80;99.90
11838;DHT22;5978;51.020;6.764;2022-10-16T09:11:05;18.60;99.90
11838;DHT22;5978;51.020;6.764;2022-10-16T09:14:13;18.80;99.90
11838;DHT22;5978;51.020;6.764;2022-10-16T09:16:38;19.00;99.90
11838;DHT22;5978;51.020;6.764;2022-10-16T09:19:24;19.10;99.90
11838;DHT22;5978;51.020;6.764;2022-10-16T09:21:54;19.00;99.90
11838;DHT22;5978;51.020;6.764;2022-10-16T09:24:25;19.00;99.90
11838;DHT22;5978;51.020;6.764;2022-10-16T09:26:50;19.00;99.90
11838;DHT22;5978;51.020;6.764;2022-10-16T09:29:18;19.10;99.90
11838;DHT22;5978;51.020;6.764;2022-10-16T09:31:47;19.10;99.90
11838;DHT22;5978;51.020;6.764;2022-10-16T09:34:34;19.10;99.90
11838;DHT22;5978;51.020;6.764;2022-10-16T09:37:04;19.00;99.90
11838;DHT22;5978;51.020;6.764;2022-10-16T09:39:48;19.00;99.90
11838;DHT22;5978;51.020;6.764;2022-10-16T09:42:35;18.90;99.90
11838;DHT22;5978;51.020;6.764;2022-10-16T09:45:19;18.90;99.90
11838;DHT22;5978;51.020;6.764;2022-10-16T09:47:46;19.00;99.90
11838;DHT22;5978;51.020;6.764;2022-10-16T09:50:25;19.20;99.90
11838;DHT22;5978;51.020;6.764;2022-10-16T09:53:07;19.30;99.90
11838;DHT22;5978;51.020;6.764;2022-10-16T09:55:36;19.60;99.90
11838;DHT22;5978;51.020;6.764;2022-10-16T09:58:01;20.00;99.90
11838;DHT22;5978;51.020;6.764;2022-10-16T10:00:27;20.50;99.90
11838;DHT22;5978;51.020;6.764;2022-10-16T10:02:55;20.90;99.90
11838;DHT22;5978;51.020;6.764;2022-10-16T10:07:54;21.40;99.90
11838;DHT22;5978;51.020;6.764;2022-10-16T10:10:28;21.90;99.90
11838;DHT22;5978;51.020;6.764;2022-10-16T10:12:55;22.40;99.90
11838;DHT22;5978;51.020;6.764;2022-10-16T10:15:21;23.00;99.90
11838;DHT22;5978;51.020;6.764;2022-10-16T10:17:56;23.40;99.90
11838;DHT22;5978;51.020;6.764;2022-10-16T10:20:31;23.00;99.90
11838;DHT22;5978;51.020;6.764;2022-10-16T10:23:01;22.60;99.90
11838;DHT22;5978;51.020;6.764;2022-10-16T10:31:06;24.80;99.90
11838;DHT22;5978;51.020;6.764;2022-10-16T10:36:36;25.70;99.90
11838;DHT22;5978;51.020;6.764;2022-10-16T11:02:38;23.00;99.90
11838;DHT22;5978;51.020;6.764;2022-10-16T11:05:19;23.50;99.90
11838;DHT22;5978;51.020;6.764;2022-10-16T11:07:54;23.60;99.90
11838;DHT22;5978;51.020;6.764;2022-10-16T11:10:26;24.20;99.90
11838;DHT22;5978;51.020;6.764;2022-10-16T11:13:17;25.20;99.90
11838;DHT22;5978;51.020;6.764;2022-10-16T11:15:47;25.80;99.40
11838;DHT22;5978;51.020;6.764;2022-10-16T11:18:21;26.50;97.90
11838;DHT22;5978;51.020;6.764;2022-10-16T11:21:14;27.90;94.80
11838;DHT22;5978;51.020;6.764;2022-10-16T11:26:23;28.70;87.00
11838;DHT22;5978;51.020;6.764;2022-10-16T11:28:51;28.90;83.50
11838;DHT22;5978;51.020;6.764;2022-10-16T11:31:38;28.20;80.80
11838;DHT22;5978;51.020;6.764;2022-10-16T11:34:28;27.20;83.60
11838;DHT22;5978;51.020;6.764;2022-10-16T11:37:22;28.00;84.70
11838;DHT22;5978;51.020;6.764;2022-10-16T11:39:50;28.90;80.10
11838;DHT22;5978;51.020;6.764;2022-10-16T11:42:37;29.10;76.40
11838;DHT22;5978;51.020;6.764;2022-10-16T11:45:34;28.20;75.80
11838;DHT22;5978;51.020;6.764;2022-10-16T11:48:30;27.50;79.80
11838;DHT22;5978;51.020;6.764;2022-10-16T11:54:32;28.50;77.80
11838;DHT22;5978;51.020;6.764;2022-10-16T11:57:09;29.30;72.90
11838;DHT22;5978;51.020;6.764;2022-10-16T11:59:48;29.30;72.70
11838;DHT22;5978;51.020;6.764;2022-10-16T12:08:10;29.60;72.40
11838;DHT22;5978;51.020;6.764;2022-10-16T12:10:39;30.50;67.60
11838;DHT22;5978;51.020;6.764;2022-10-16T12:18:41;28.00;72.20
11838;DHT22;5978;51.020;6.764;2022-10-16T12:21:08;27.20;73.40
11838;DHT22;5978;51.020;6.764;2022-10-16T12:23:46;26.30;75.40
11838;DHT22;5978;51.020;6.764;2022-10-16T12:26:13;26.00;80.50
11838;DHT22;5978;51.020;6.764;2022-10-16T12:28:38;25.20;84.80
11838;DHT22;5978;51.020;6.764;2022-10-16T12:31:07;25.80;89.60
11838;DHT22;5978;51.020;6.764;2022-10-16T12:33:37;27.00;86.70
11838;DHT22;5978;51.020;6.764;2022-10-16T12:38:48;30.00;73.20
11838;DHT22;5978;51.020;6.764;2022-10-16T12:41:31;31.60;67.70
11838;DHT22;5978;51.020;6.764;2022-10-16T12:43:58;32.30;62.70
11838;DHT22;5978;51.020;6.764;2022-10-16T12:51:38;31.70;58.10
11838;DHT22;5978;51.020;6.764;2022-10-16T12:54:27;32.90;59.40
11838;DHT22;5978;51.020;6.764;2022-10-16T12:57:41;34.50;56.70
11838;DHT22;5978;51.020;6.764;2022-10-16T12:59:50;35.30;54.70
11838;DHT22;5978;51.020;6.764;2022-10-16T13:08:01;32.90;55.60
11838;DHT22;5978;51.020;6.764;2022-10-16T13:13:47;33.40;54.70
11838;DHT22;5978;51.020;6.764;2022-10-16T13:16:19;34.20;54.30
11838;DHT22;5978;51.020;6.764;2022-10-16T13:22:11;34.60;52.90
11838;DHT22;5978;51.020;6.764;2022-10-16T13:30:18;37.00;50.70
11838;DHT22;5978;51.020;6.764;2022-10-16T13:33:00;38.10;48.20
11838;DHT22;5978;51.020;6.764;2022-10-16T13:35:29;37.90;48.30
11838;DHT22;5978;51.020;6.764;2022-10-16T13:38:17;39.10;48.00
11838;DHT22;5978;51.020;6.764;2022-10-16T13:43:35;39.20;45.20
11838;DHT22;5978;51.020;6.764;2022-10-16T13:46:04;39.20;45.40
11838;DHT22;5978;51.020;6.764;2022-10-16T13:48:32;38.00;45.70
11838;DHT22;5978;51.020;6.764;2022-10-16T13:51:25;36.70;46.10
11838;DHT22;5978;51.020;6.764;2022-10-16T13:53:51;34.00;47.50
11838;DHT22;5978;51.020;6.764;2022-10-16T13:56:20;32.90;49.10
11838;DHT22;5978;51.020;6.764;2022-10-16T13:59:04;32.50;50.80
11838;DHT22;5978;51.020;6.764;2022-10-16T14:01:49;32.00;52.10
11838;DHT22;5978;51.020;6.764;2022-10-16T14:04:16;31.70;52.70
11838;DHT22;5978;51.020;6.764;2022-10-16T14:06:45;30.60;52.80
11838;DHT22;5978;51.020;6.764;2022-10-16T14:12:12;29.10;56.20
11838;DHT22;5978;51.020;6.764;2022-10-16T14:14:45;28.40;57.40
11838;DHT22;5978;51.020;6.764;2022-10-16T14:17:19;28.00;59.10
11838;DHT22;5978;51.020;6.764;2022-10-16T14:19:47;27.70;60.90
11838;DHT22;5978;51.020;6.764;2022-10-16T14:22:37;27.30;61.10
11838;DHT22;5978;51.020;6.764;2022-10-16T14:25:26;26.70;61.40
11838;DHT22;5978;51.020;6.764;2022-10-16T14:28:15;26.30;64.50
11838;DHT22;5978;51.020;6.764;2022-10-16T14:30:59;25.90;67.70
11838;DHT22;5978;51.020;6.764;2022-10-16T14:33:34;25.60;73.40
11838;DHT22;5978;51.020;6.764;2022-10-16T14:38:36;24.80;72.40
11838;DHT22;5978;51.020;6.764;2022-10-16T14:41:03;24.50;78.00
11838;DHT22;5978;51.020;6.764;2022-10-16T14:43:37;24.10;81.80
11838;DHT22;5978;51.020;6.764;2022-10-16T14:46:19;23.90;91.00
11838;DHT22;5978;51.020;6.764;2022-10-16T14:48:50;23.80;96.30
11838;DHT22;5978;51.020;6.764;2022-10-16T14:51:19;23.80;99.90
11838;DHT22;5978;51.020;6.764;2022-10-16T14:53:46;23.70;99.90
11838;DHT22;5978;51.020;6.764;2022-10-16T14:56:23;23.70;98.30
11838;DHT22;5978;51.020;6.764;2022-10-16T14:58:51;23.70;99.90
11838;DHT22;5978;51.020;6.764;2022-10-16T15:01:17;23.70;99.90
11838;DHT22;5978;51.020;6.764;2022-10-16T15:03:43;23.60;99.90
11838;DHT22;5978;51.020;6.764;2022-10-16T15:06:11;23.50;99.90
11838;DHT22;5978;51.020;6.764;2022-10-16T15:08:37;23.40;99.90
11838;DHT22;5978;51.020;6.764;2022-10-16T15:11:08;23.30;99.90
11838;DHT22;5978;51.020;6.764;2022-10-16T15:13:37;23.20;99.90
11838;DHT22;5978;51.020;6.764;2022-10-16T15:16:02;23.20;99.90
11838;DHT22;5978;51.020;6.764;2022-10-16T15:18:28;23.30;99.90
11838;DHT22;5978;51.020;6.764;2022-10-16T15:20:54;23.30;99.90
11838;DHT22;5978;51.020;6.764;2022-10-16T15:23:21;23.20;99.90
11838;DHT22;5978;51.020;6.764;2022-10-16T15:25:49;23.20;99.90
11838;DHT22;5978;51.020;6.764;2022-10-16T15:28:16;23.10;99.90
11838;DHT22;5978;51.020;6.764;2022-10-16T15:30:55;23.00;99.90
11838;DHT22;5978;51.020;6.764;2022-10-16T15:33:25;22.80;99.90
11838;DHT22;5978;51.020;6.764;2022-10-16T15:35:54;22.70;99.90
11838;DHT22;5978;51.020;6.764;2022-10-16T15:38:21;22.60;99.90
11838;DHT22;5978;51.020;6.764;2022-10-16T15:40:48;22.50;99.90
11838;DHT22;5978;51.020;6.764;2022-10-16T15:43:14;22.30;99.90
11838;DHT22;5978;51.020;6.764;2022-10-16T15:45:40;22.10;99.90
11838;DHT22;5978;51.020;6.764;2022-10-16T15:48:05;22.00;99.90
11838;DHT22;5978;51.020;6.764;2022-10-16T15:50:32;21.90;99.90
11838;DHT22;5978;51.020;6.764;2022-10-16T15:52:58;21.80;99.90
11838;DHT22;5978;51.020;6.764;2022-10-16T15:55:24;21.70;99.90
11838;DHT22;5978;51.020;6.764;2022-10-16T15:57:49;21.50;99.90
11838;DHT22;5978;51.020;6.764;2022-10-16T16:00:17;21.50;99.90
11838;DHT22;5978;51.020;6.764;2022-10-16T16:02:44;21.50;99.90
11838;DHT22;5978;51.020;6.764;2022-10-16T16:05:15;21.40;99.90
11838;DHT22;5978;51.020;6.764;2022-10-16T16:07:41;21.40;99.90
11838;DHT22;5978;51.020;6.764;2022-10-16T16:10:09;21.40;99.90
11838;DHT22;5978;51.020;6.764;2022-10-16T16:12:35;21.20;99.90
11838;DHT22;5978;51.020;6.764;2022-10-16T16:15:02;21.20;99.90
11838;DHT22;5978;51.020;6.764;2022-10-16T16:17:30;21.20;99.90
11838;DHT22;5978;51.020;6.764;2022-10-16T16:19:56;21.10;99.90
11838;DHT22;5978;51.020;6.764;2022-10-16T16:22:21;21.00;99.90
11838;DHT22;5978;51.020;6.764;2022-10-16T16:24:47;20.90;99.90
11838;DHT22;5978;51.020;6.764;2022-10-16T16:27:13;20.90;99.90
11838;DHT22;5978;51.020;6.764;2022-10-16T16:29:39;20.90;99.90
11838;DHT22;5978;51.020;6.764;2022-10-16T16:32:05;20.80;99.90
11838;DHT22;5978;51.020;6.764;2022-10-16T16:34:30;20.80;99.90
11838;DHT22;5978;51.020;6.764;2022-10-16T16:37:00;20.70;99.90
11838;DHT22;5978;51.020;6.764;2022-10-16T16:39:26;20.70;99.90
11838;DHT22;5978;51.020;6.764;2022-10-16T16:41:51;20.60;99.90
11838;DHT22;5978;51.020;6.764;2022-10-16T16:44:28;20.50;99.90
11838;DHT22;5978;51.020;6.764;2022-10-16T16:46:53;20.40;99.90
11838;DHT22;5978;51.020;6.764;2022-10-16T16:49:19;20.40;99.90
11838;DHT22;5978;51.020;6.764;2022-10-16T16:51:45;20.30;99.90
11838;DHT22;5978;51.020;6.764;2022-10-16T16:54:11;20.30;99.90
11838;DHT22;5978;51.020;6.764;2022-10-16T16:56:38;20.20;99.90
11838;DHT22;5978;51.020;6.764;2022-10-16T16:59:04;20.10;99.90
11838;DHT22;5978;51.020;6.764;2022-10-16T17:01:30;20.00;99.90
11838;DHT22;5978;51.020;6.764;2022-10-16T17:03:57;19.90;99.90
11838;DHT22;5978;51.020;6.764;2022-10-16T17:06:26;19.90;99.90
11838;DHT22;5978;51.020;6.764;2022-10-16T17:08:52;19.70;99.90
11838;DHT22;5978;51.020;6.764;2022-10-16T17:11:23;19.70;99.90
11838;DHT22;5978;51.020;6.764;2022-10-16T17:13:50;19.60;99.90
11838;DHT22;5978;51.020;6.764;2022-10-16T17:16:17;19.50;99.90
11838;DHT22;5978;51.020;6.764;2022-10-16T17:18:43;19.60;99.90
11838;DHT22;5978;51.020;6.764;2022-10-16T17:21:09;19.60;99.90
11838;DHT22;5978;51.020;6.764;2022-10-16T17:23:37;19.60;99.90
11838;DHT22;5978;51.020;6.764;2022-10-16T17:26:11;19.70;99.90
11838;DHT22;5978;51.020;6.764;2022-10-16T17:28:38;19.70;99.90
11838;DHT22;5978;51.020;6.764;2022-10-16T17:31:12;19.60;99.90
11838;DHT22;5978;51.020;6.764;2022-10-16T17:33:38;19.60;99.90
11838;DHT22;5978;51.020;6.764;2022-10-16T17:36:05;19.60;99.90
11838;DHT22;5978;51.020;6.764;2022-10-16T17:38:31;19.40;99.90
11838;DHT22;5978;51.020;6.764;2022-10-16T17:40:56;19.40;99.90
11838;DHT22;5978;51.020;6.764;2022-10-16T17:43:22;19.40;99.90